sensor_id;sensor_type;location;lat;lon;timestamp;pressure;altitude;pressure_sealevel;temperature;humidity
41515;BME280;27247;48.020;16.720;2023-02-26T00:01:58;98895.34;;;2.95;78.12
41515;BME280;27247;48.020;16.720;2023-02-26T00:06:11;98893.53;;;2.95;78.22
41515;BME280;27247;48.020;16.720;2023-02-26T00:10:21;98896.88;;;2.97;78.54
41515;BME280;27247;48.020;16.720;2023-02-26T00:14:32;98891.81;;;2.86;78.16
41515;BME280;27247;48.020;16.720;2023-02-26T00:18:42;98897.31;;;2.93;77.59
41515;BME280;27247;48.020;16.720;2023-02-26T00:22:53;98918.94;;;2.96;78.04
41515;BME280;27247;48.020;16.720;2023-02-26T00:27:03;98933.50;;;3.00;77.82
41515;BME280;27247;48.020;16.720;2023-02-26T00:31:15;98942.31;;;2.91;77.89
41515;BME280;27247;48.020;16.720;2023-02-26T00:35:26;98944.97;;;2.91;78.32
41515;BME280;27247;48.020;16.720;2023-02-26T00:39:49;98923.56;;;2.94;78.46
41515;BME280;27247;48.020;16.720;2023-02-26T00:44:02;98913.06;;;3.02;78.26
41515;BME280;27247;48.020;16.720;2023-02-26T00:48:25;98883.38;;;3.00;77.67
41515;BME280;27247;48.020;16.720;2023-02-26T00:52:57;98855.84;;;2.85;78.46
41515;BME280;27247;48.020;16.720;2023-02-26T00:57:09;98850.81;;;2.74;78.27
41515;BME280;27247;48.020;16.720;2023-02-26T01:01:19;98835.44;;;2.69;78.72
41515;BME280;27247;48.020;16.720;2023-02-26T01:05:30;98822.63;;;2.56;79.16
41515;BME280;27247;48.020;16.720;2023-02-26T01:09:41;98841.97;;;2.47;79.38
41515;BME280;27247;48.020;16.720;2023-02-26T01:13:51;98864.56;;;2.50;79.77
41515;BME280;27247;48.020;16.720;2023-02-26T01:18:13;98897.78;;;2.43;80.16
41515;BME280;27247;48.020;16.720;2023-02-26T01:22:56;98883.63;;;2.44;80.41
41515;BME280;27247;48.020;16.720;2023-02-26T01:27:09;98893.34;;;2.43;81.40
41515;BME280;27247;48.020;16.720;2023-02-26T01:44:26;98936.16;;;2.55;81.90
41515;BME280;27247;48.020;16.720;2023-02-26T01:48:59;98936.69;;;2.59;81.34
41515;BME280;27247;48.020;16.720;2023-02-26T01:53:24;98901.72;;;2.56;81.48
41515;BME280;27247;48.020;16.720;2023-02-26T01:57:35;98901.03;;;2.54;80.75
41515;BME280;27247;48.020;16.720;2023-02-26T02:01:45;98899.97;;;2.47;80.70
41515;BME280;27247;48.020;16.720;2023-02-26T02:06:00;98906.06;;;2.48;80.56
41515;BME280;27247;48.020;16.720;2023-02-26T02:10:13;98917.84;;;2.53;80.12
41515;BME280;27247;48.020;16.720;2023-02-26T02:23:39;98934.59;;;2.35;79.29
41515;BME280;27247;48.020;16.720;2023-02-26T02:36:47;98934.53;;;2.17;79.07
41515;BME280;27247;48.020;16.720;2023-02-26T02:41:13;98974.06;;;2.17;78.34
41515;BME280;27247;48.020;16.720;2023-02-26T02:50:20;98957.53;;;2.24;78.43
41515;BME280;27247;48.020;16.720;2023-02-26T02:58:55;98969.31;;;2.20;78.25
41515;BME280;27247;48.020;16.720;2023-02-26T03:03:41;98980.28;;;2.16;77.94
41515;BME280;27247;48.020;16.720;2023-02-26T03:07:56;98965.06;;;2.10;77.69
41515;BME280;27247;48.020;16.720;2023-02-26T03:12:07;98975.47;;;2.11;78.04
41515;BME280;27247;48.020;16.720;2023-02-26T03:20:49;98985.84;;;2.13;77.95
41515;BME280;27247;48.020;16.720;2023-02-26T03:25:15;99009.69;;;2.02;76.73
41515;BME280;27247;48.020;16.720;2023-02-26T03:29:37;99004.44;;;2.11;76.88
41515;BME280;27247;48.020;16.720;2023-02-26T03:33:57;98986.00;;;2.02;77.41
41515;BME280;27247;48.020;16.720;2023-02-26T03:38:13;98995.97;;;1.98;77.52
41515;BME280;27247;48.020;16.720;2023-02-26T03:43:03;98994.88;;;1.91;77.71
41515;BME280;27247;48.020;16.720;2023-02-26T03:47:07;98990.31;;;1.93;77.18
41515;BME280;27247;48.020;16.720;2023-02-26T03:51:19;99007.38;;;1.89;77.24
41515;BME280;27247;48.020;16.720;2023-02-26T03:55:35;99009.31;;;1.87;77.68
41515;BME280;27247;48.020;16.720;2023-02-26T03:59:48;99018.06;;;1.78;77.23
41515;BME280;27247;48.020;16.720;2023-02-26T04:04:03;99018.75;;;1.80;77.65
41515;BME280;27247;48.020;16.720;2023-02-26T04:08:15;99031.22;;;1.78;77.57
41515;BME280;27247;48.020;16.720;2023-02-26T04:12:27;99044.13;;;1.71;77.43
41515;BME280;27247;48.020;16.720;2023-02-26T04:16:38;99054.66;;;1.71;77.38
41515;BME280;27247;48.020;16.720;2023-02-26T04:20:48;99055.63;;;1.70;77.07
41515;BME280;27247;48.020;16.720;2023-02-26T04:24:59;99061.03;;;1.69;77.50
41515;BME280;27247;48.020;16.720;2023-02-26T04:29:09;99051.59;;;1.66;77.54
41515;BME280;27247;48.020;16.720;2023-02-26T04:33:20;99068.94;;;1.69;76.89
41515;BME280;27247;48.020;16.720;2023-02-26T04:37:32;99066.00;;;1.62;76.96
41515;BME280;27247;48.020;16.720;2023-02-26T04:41:43;99076.41;;;1.64;77.08
41515;BME280;27247;48.020;16.720;2023-02-26T04:45:53;99085.97;;;1.74;77.83
41515;BME280;27247;48.020;16.720;2023-02-26T04:50:04;99093.88;;;1.65;77.78
41515;BME280;27247;48.020;16.720;2023-02-26T04:54:14;99092.63;;;1.69;77.75
41515;BME280;27247;48.020;16.720;2023-02-26T04:58:25;99093.47;;;1.69;77.81
41515;BME280;27247;48.020;16.720;2023-02-26T05:02:35;99075.56;;;1.63;78.19
41515;BME280;27247;48.020;16.720;2023-02-26T05:06:45;99072.81;;;1.55;78.83
41515;BME280;27247;48.020;16.720;2023-02-26T05:10:56;99083.59;;;1.42;79.92
41515;BME280;27247;48.020;16.720;2023-02-26T05:15:06;99081.78;;;1.33;81.55
41515;BME280;27247;48.020;16.720;2023-02-26T05:19:17;99107.50;;;1.20;82.63
41515;BME280;27247;48.020;16.720;2023-02-26T05:23:27;99120.50;;;1.12;83.16
41515;BME280;27247;48.020;16.720;2023-02-26T05:27:39;99123.69;;;1.15;84.42
41515;BME280;27247;48.020;16.720;2023-02-26T05:31:51;99119.41;;;1.14;84.17
41515;BME280;27247;48.020;16.720;2023-02-26T05:36:01;99141.28;;;1.15;83.91
41515;BME280;27247;48.020;16.720;2023-02-26T05:40:12;99141.56;;;1.21;84.32
41515;BME280;27247;48.020;16.720;2023-02-26T05:44:23;99154.34;;;1.26;83.54
41515;BME280;27247;48.020;16.720;2023-02-26T05:48:33;99164.91;;;1.36;83.71
41515;BME280;27247;48.020;16.720;2023-02-26T05:52:44;99163.94;;;1.37;83.61
41515;BME280;27247;48.020;16.720;2023-02-26T05:56:54;99168.34;;;1.36;84.37
41515;BME280;27247;48.020;16.720;2023-02-26T06:01:05;99173.47;;;1.28;84.52
41515;BME280;27247;48.020;16.720;2023-02-26T06:05:15;99185.91;;;1.26;85.44
41515;BME280;27247;48.020;16.720;2023-02-26T06:09:26;99198.09;;;1.27;86.06
41515;BME280;27247;48.020;16.720;2023-02-26T06:13:36;99203.06;;;1.20;86.80
41515;BME280;27247;48.020;16.720;2023-02-26T06:17:46;99213.41;;;1.12;87.08
41515;BME280;27247;48.020;16.720;2023-02-26T06:21:57;99214.81;;;1.16;87.27
41515;BME280;27247;48.020;16.720;2023-02-26T06:26:07;99217.72;;;1.13;88.44
41515;BME280;27247;48.020;16.720;2023-02-26T06:30:18;99230.34;;;1.19;88.80
41515;BME280;27247;48.020;16.720;2023-02-26T06:34:28;99238.69;;;1.24;89.49
41515;BME280;27247;48.020;16.720;2023-02-26T06:38:38;99240.91;;;1.29;89.32
41515;BME280;27247;48.020;16.720;2023-02-26T06:42:49;99247.13;;;1.28;89.69
41515;BME280;27247;48.020;16.720;2023-02-26T06:46:59;99249.13;;;1.36;90.08
41515;BME280;27247;48.020;16.720;2023-02-26T06:51:10;99264.34;;;1.32;89.94
41515;BME280;27247;48.020;16.720;2023-02-26T06:55:20;99262.16;;;1.37;90.24
41515;BME280;27247;48.020;16.720;2023-02-26T06:59:31;99268.53;;;1.44;90.14
41515;BME280;27247;48.020;16.720;2023-02-26T07:03:41;99266.97;;;1.32;90.61
41515;BME280;27247;48.020;16.720;2023-02-26T07:07:51;99270.69;;;1.30;90.65
41515;BME280;27247;48.020;16.720;2023-02-26T07:12:02;99275.25;;;1.27;91.45
41515;BME280;27247;48.020;16.720;2023-02-26T07:16:13;99284.03;;;1.38;91.14
41515;BME280;27247;48.020;16.720;2023-02-26T07:20:23;99290.69;;;1.42;90.65
41515;BME280;27247;48.020;16.720;2023-02-26T07:24:33;99297.81;;;1.51;90.81
41515;BME280;27247;48.020;16.720;2023-02-26T07:28:50;99312.00;;;1.59;91.03
41515;BME280;27247;48.020;16.720;2023-02-26T07:33:00;99310.81;;;1.73;90.18
41515;BME280;27247;48.020;16.720;2023-02-26T07:37:11;99304.16;;;1.79;89.08
41515;BME280;27247;48.020;16.720;2023-02-26T07:41:22;99316.84;;;1.95;88.66
41515;BME280;27247;48.020;16.720;2023-02-26T07:45:52;99308.97;;;2.04;88.83
41515;BME280;27247;48.020;16.720;2023-02-26T07:50:03;99305.56;;;2.13;88.73
41515;BME280;27247;48.020;16.720;2023-02-26T07:54:14;99314.44;;;2.12;87.27
41515;BME280;27247;48.020;16.720;2023-02-26T07:58:25;99315.00;;;2.26;87.12
41515;BME280;27247;48.020;16.720;2023-02-26T08:02:36;99324.75;;;2.44;86.00
41515;BME280;27247;48.020;16.720;2023-02-26T08:06:46;99319.50;;;2.54;84.65
41515;BME280;27247;48.020;16.720;2023-02-26T08:10:58;99322.56;;;2.69;84.62
41515;BME280;27247;48.020;16.720;2023-02-26T08:15:09;99316.03;;;2.82;83.27
41515;BME280;27247;48.020;16.720;2023-02-26T08:19:22;99318.94;;;2.99;82.50
41515;BME280;27247;48.020;16.720;2023-02-26T08:23:32;99322.69;;;3.15;80.32
41515;BME280;27247;48.020;16.720;2023-02-26T08:27:43;99331.84;;;3.21;79.61
41515;BME280;27247;48.020;16.720;2023-02-26T08:31:53;99351.31;;;3.20;78.79
41515;BME280;27247;48.020;16.720;2023-02-26T08:36:04;99360.75;;;3.32;78.31
41515;BME280;27247;48.020;16.720;2023-02-26T08:40:15;99359.03;;;3.50;78.04
41515;BME280;27247;48.020;16.720;2023-02-26T08:44:25;99352.31;;;3.66;75.70
41515;BME280;27247;48.020;16.720;2023-02-26T08:48:36;99348.44;;;3.70;75.95
41515;BME280;27247;48.020;16.720;2023-02-26T08:52:47;99353.41;;;3.73;75.01
41515;BME280;27247;48.020;16.720;2023-02-26T08:56:57;99361.81;;;3.49;71.84
41515;BME280;27247;48.020;16.720;2023-02-26T09:01:08;99374.78;;;3.33;71.68
41515;BME280;27247;48.020;16.720;2023-02-26T09:05:18;99372.56;;;3.18;71.51
41515;BME280;27247;48.020;16.720;2023-02-26T09:09:29;99388.25;;;3.30;71.87
41515;BME280;27247;48.020;16.720;2023-02-26T09:13:39;99397.72;;;3.23;72.04
41515;BME280;27247;48.020;16.720;2023-02-26T09:17:49;99386.44;;;3.40;71.63
41515;BME280;27247;48.020;16.720;2023-02-26T09:22:00;99397.41;;;3.45;70.84
41515;BME280;27247;48.020;16.720;2023-02-26T09:26:18;99405.50;;;3.34;69.75
41515;BME280;27247;48.020;16.720;2023-02-26T09:30:28;99421.75;;;3.39;68.48
41515;BME280;27247;48.020;16.720;2023-02-26T09:34:38;99408.28;;;3.32;69.44
41515;BME280;27247;48.020;16.720;2023-02-26T09:38:49;99414.66;;;3.20;67.78
41515;BME280;27247;48.020;16.720;2023-02-26T09:47:40;99440.25;;;3.29;67.64
41515;BME280;27247;48.020;16.720;2023-02-26T09:52:01;99448.28;;;3.47;68.22
41515;BME280;27247;48.020;16.720;2023-02-26T09:56:16;99444.13;;;3.44;65.09
41515;BME280;27247;48.020;16.720;2023-02-26T10:00:46;99457.06;;;3.38;65.85
41515;BME280;27247;48.020;16.720;2023-02-26T10:05:21;99448.56;;;3.44;65.38
41515;BME280;27247;48.020;16.720;2023-02-26T10:09:40;99476.66;;;3.55;63.86
41515;BME280;27247;48.020;16.720;2023-02-26T10:14:00;99492.91;;;3.21;63.35
41515;BME280;27247;48.020;16.720;2023-02-26T10:18:20;99508.00;;;3.09;63.61
41515;BME280;27247;48.020;16.720;2023-02-26T10:27:22;99491.78;;;3.81;65.03
41515;BME280;27247;48.020;16.720;2023-02-26T10:36:37;99491.94;;;3.61;64.69
41515;BME280;27247;48.020;16.720;2023-02-26T10:41:07;99488.59;;;3.59;65.39
41515;BME280;27247;48.020;16.720;2023-02-26T10:50:03;99520.59;;;3.56;63.57
41515;BME280;27247;48.020;16.720;2023-02-26T10:54:26;99507.94;;;3.69;61.61
41515;BME280;27247;48.020;16.720;2023-02-26T10:58:37;99497.50;;;3.58;62.37
41515;BME280;27247;48.020;16.720;2023-02-26T11:02:49;99500.41;;;3.64;62.26
41515;BME280;27247;48.020;16.720;2023-02-26T11:07:04;99513.06;;;3.61;61.68
41515;BME280;27247;48.020;16.720;2023-02-26T11:12:00;99498.75;;;3.53;62.08
41515;BME280;27247;48.020;16.720;2023-02-26T11:16:10;99499.16;;;3.78;62.83
41515;BME280;27247;48.020;16.720;2023-02-26T11:20:36;99503.03;;;3.83;62.55
41515;BME280;27247;48.020;16.720;2023-02-26T11:24:48;99503.31;;;3.80;61.58
41515;BME280;27247;48.020;16.720;2023-02-26T11:29:02;99517.25;;;3.73;61.28
41515;BME280;27247;48.020;16.720;2023-02-26T11:33:17;99519.19;;;3.80;61.27
41515;BME280;27247;48.020;16.720;2023-02-26T11:37:29;99531.44;;;3.72;59.88
41515;BME280;27247;48.020;16.720;2023-02-26T11:41:41;99514.72;;;3.81;60.22
41515;BME280;27247;48.020;16.720;2023-02-26T11:45:57;99518.84;;;4.12;60.91
41515;BME280;27247;48.020;16.720;2023-02-26T11:50:16;99524.84;;;4.05;61.33
41515;BME280;27247;48.020;16.720;2023-02-26T11:54:28;99530.72;;;3.60;62.34
41515;BME280;27247;48.020;16.720;2023-02-26T11:58:40;99534.75;;;3.45;62.82
41515;BME280;27247;48.020;16.720;2023-02-26T12:02:59;99526.13;;;3.43;62.71
41515;BME280;27247;48.020;16.720;2023-02-26T12:07:13;99523.22;;;3.65;61.93
41515;BME280;27247;48.020;16.720;2023-02-26T12:16:00;99532.53;;;3.89;59.64
41515;BME280;27247;48.020;16.720;2023-02-26T12:20:28;99527.38;;;3.77;59.18
41515;BME280;27247;48.020;16.720;2023-02-26T12:38:28;99547.28;;;3.72;59.95
41515;BME280;27247;48.020;16.720;2023-02-26T12:47:30;99563.50;;;3.29;63.58
41515;BME280;27247;48.020;16.720;2023-02-26T13:06:13;99576.31;;;3.33;63.97
41515;BME280;27247;48.020;16.720;2023-02-26T13:10:40;99588.81;;;3.41;64.73
41515;BME280;27247;48.020;16.720;2023-02-26T13:15:07;99579.78;;;3.34;64.76
41515;BME280;27247;48.020;16.720;2023-02-26T13:28:41;99624.38;;;2.97;68.85
41515;BME280;27247;48.020;16.720;2023-02-26T13:32:55;99622.56;;;2.97;69.39
41515;BME280;27247;48.020;16.720;2023-02-26T13:37:23;99631.63;;;3.04;69.39
41515;BME280;27247;48.020;16.720;2023-02-26T13:54:55;99645.84;;;2.62;70.29
41515;BME280;27247;48.020;16.720;2023-02-26T14:07:48;99658.56;;;2.15;67.33
41515;BME280;27247;48.020;16.720;2023-02-26T14:16:28;99656.78;;;2.36;66.38
41515;BME280;27247;48.020;16.720;2023-02-26T14:20:39;99654.03;;;2.38;65.99
41515;BME280;27247;48.020;16.720;2023-02-26T14:24:53;99657.75;;;2.35;65.82
41515;BME280;27247;48.020;16.720;2023-02-26T14:29:13;99653.06;;;2.39;66.53
41515;BME280;27247;48.020;16.720;2023-02-26T14:33:30;99667.66;;;2.43;66.42
41515;BME280;27247;48.020;16.720;2023-02-26T14:37:43;99656.41;;;2.41;67.63
41515;BME280;27247;48.020;16.720;2023-02-26T14:42:19;99669.09;;;2.47;67.66
41515;BME280;27247;48.020;16.720;2023-02-26T14:46:31;99664.97;;;2.54;67.69
41515;BME280;27247;48.020;16.720;2023-02-26T15:00:39;99685.69;;;2.59;67.22
41515;BME280;27247;48.020;16.720;2023-02-26T15:05:04;99687.66;;;2.66;68.46
41515;BME280;27247;48.020;16.720;2023-02-26T15:14:18;99710.31;;;2.69;69.41
41515;BME280;27247;48.020;16.720;2023-02-26T15:27:36;99716.88;;;2.53;65.09
41515;BME280;27247;48.020;16.720;2023-02-26T15:31:56;99709.34;;;2.49;64.96
41515;BME280;27247;48.020;16.720;2023-02-26T15:36:17;99720.97;;;2.46;65.17
41515;BME280;27247;48.020;16.720;2023-02-26T15:40:34;99734.56;;;2.42;64.61
41515;BME280;27247;48.020;16.720;2023-02-26T15:44:47;99724.00;;;2.42;65.13
41515;BME280;27247;48.020;16.720;2023-02-26T15:53:50;99737.56;;;2.37;65.69
41515;BME280;27247;48.020;16.720;2023-02-26T15:58:04;99751.84;;;2.35;66.04
41515;BME280;27247;48.020;16.720;2023-02-26T16:02:23;99759.63;;;2.36;66.33
41515;BME280;27247;48.020;16.720;2023-02-26T16:06:38;99774.84;;;2.33;66.74
41515;BME280;27247;48.020;16.720;2023-02-26T16:10:50;99783.00;;;2.30;67.07
41515;BME280;27247;48.020;16.720;2023-02-26T16:15:12;99783.97;;;2.29;67.13
41515;BME280;27247;48.020;16.720;2023-02-26T16:23:47;99792.84;;;2.28;67.33
41515;BME280;27247;48.020;16.720;2023-02-26T16:28:29;99809.88;;;2.23;67.37
41515;BME280;27247;48.020;16.720;2023-02-26T16:32:42;99801.25;;;2.21;67.97
41515;BME280;27247;48.020;16.720;2023-02-26T16:36:56;99800.66;;;2.18;69.07
41515;BME280;27247;48.020;16.720;2023-02-26T16:41:10;99813.13;;;2.16;68.97
41515;BME280;27247;48.020;16.720;2023-02-26T16:49:34;99822.94;;;2.14;69.33
41515;BME280;27247;48.020;16.720;2023-02-26T16:53:49;99834.56;;;2.11;69.11
41515;BME280;27247;48.020;16.720;2023-02-26T16:58:04;99834.91;;;2.07;68.40
41515;BME280;27247;48.020;16.720;2023-02-26T17:02:37;99854.69;;;2.01;66.68
41515;BME280;27247;48.020;16.720;2023-02-26T17:06:50;99863.91;;;1.96;66.88
41515;BME280;27247;48.020;16.720;2023-02-26T17:11:08;99878.38;;;2.01;66.24
41515;BME280;27247;48.020;16.720;2023-02-26T17:15:30;99883.78;;;2.00;66.82
41515;BME280;27247;48.020;16.720;2023-02-26T17:19:44;99898.03;;;1.97;66.32
41515;BME280;27247;48.020;16.720;2023-02-26T17:23:54;99901.88;;;1.93;65.12
41515;BME280;27247;48.020;16.720;2023-02-26T17:28:06;99898.28;;;1.94;65.42
41515;BME280;27247;48.020;16.720;2023-02-26T17:32:20;99915.16;;;1.91;65.08
41515;BME280;27247;48.020;16.720;2023-02-26T17:36:32;99924.13;;;1.89;64.30
41515;BME280;27247;48.020;16.720;2023-02-26T17:40:46;99914.78;;;1.85;63.49
41515;BME280;27247;48.020;16.720;2023-02-26T17:45:03;99923.41;;;1.76;64.20
41515;BME280;27247;48.020;16.720;2023-02-26T17:49:15;99926.50;;;1.70;64.57
41515;BME280;27247;48.020;16.720;2023-02-26T17:53:25;99931.91;;;1.68;64.41
41515;BME280;27247;48.020;16.720;2023-02-26T17:57:50;99928.88;;;1.62;64.85
41515;BME280;27247;48.020;16.720;2023-02-26T18:02:00;99937.97;;;1.57;65.12
41515;BME280;27247;48.020;16.720;2023-02-26T18:06:13;99945.38;;;1.52;65.84
41515;BME280;27247;48.020;16.720;2023-02-26T18:10:24;99938.19;;;1.43;65.56
41515;BME280;27247;48.020;16.720;2023-02-26T18:14:35;99931.69;;;1.36;65.82
41515;BME280;27247;48.020;16.720;2023-02-26T18:18:46;99935.63;;;1.31;66.23
41515;BME280;27247;48.020;16.720;2023-02-26T18:22:57;99926.88;;;1.30;66.37
41515;BME280;27247;48.020;16.720;2023-02-26T18:27:16;99933.94;;;1.30;67.18
41515;BME280;27247;48.020;16.720;2023-02-26T18:31:28;99944.69;;;1.26;67.56
41515;BME280;27247;48.020;16.720;2023-02-26T18:35:47;99944.31;;;1.20;67.85
41515;BME280;27247;48.020;16.720;2023-02-26T18:40:00;99944.19;;;1.21;68.28
41515;BME280;27247;48.020;16.720;2023-02-26T18:44:11;99946.56;;;1.13;69.35
41515;BME280;27247;48.020;16.720;2023-02-26T18:48:22;99954.56;;;1.12;69.65
41515;BME280;27247;48.020;16.720;2023-02-26T18:52:34;99965.44;;;1.07;70.12
41515;BME280;27247;48.020;16.720;2023-02-26T18:56:45;99957.53;;;1.07;70.17
41515;BME280;27247;48.020;16.720;2023-02-26T19:01:01;99975.22;;;1.05;70.43
41515;BME280;27247;48.020;16.720;2023-02-26T19:05:13;99964.28;;;0.99;70.62
41515;BME280;27247;48.020;16.720;2023-02-26T19:09:24;99973.97;;;0.98;71.13
41515;BME280;27247;48.020;16.720;2023-02-26T19:13:38;99975.88;;;0.96;70.95
41515;BME280;27247;48.020;16.720;2023-02-26T19:17:50;99967.13;;;0.95;71.21
41515;BME280;27247;48.020;16.720;2023-02-26T19:22:02;99978.72;;;0.93;71.14
41515;BME280;27247;48.020;16.720;2023-02-26T19:26:13;99981.47;;;0.91;71.52
41515;BME280;27247;48.020;16.720;2023-02-26T19:30:24;99986.84;;;0.90;71.79
41515;BME280;27247;48.020;16.720;2023-02-26T19:34:35;99987.69;;;0.90;71.98
41515;BME280;27247;48.020;16.720;2023-02-26T19:38:47;99995.56;;;0.90;72.23
41515;BME280;27247;48.020;16.720;2023-02-26T19:43:01;99997.03;;;0.94;72.68
41515;BME280;27247;48.020;16.720;2023-02-26T19:47:11;100003.00;;;0.96;72.42
41515;BME280;27247;48.020;16.720;2023-02-26T19:51:22;100007.94;;;1.01;72.15
41515;BME280;27247;48.020;16.720;2023-02-26T19:55:33;100003.53;;;1.02;72.01
41515;BME280;27247;48.020;16.720;2023-02-26T19:59:44;100014.59;;;1.07;71.67
41515;BME280;27247;48.020;16.720;2023-02-26T20:03:56;100006.47;;;0.97;72.06
41515;BME280;27247;48.020;16.720;2023-02-26T20:08:07;100019.63;;;0.97;71.16
41515;BME280;27247;48.020;16.720;2023-02-26T20:12:18;100025.00;;;0.95;71.22
41515;BME280;27247;48.020;16.720;2023-02-26T20:16:34;100028.69;;;0.93;71.55
41515;BME280;27247;48.020;16.720;2023-02-26T20:20:45;100035.25;;;0.87;71.41
41515;BME280;27247;48.020;16.720;2023-02-26T20:24:59;100042.28;;;0.87;71.53
41515;BME280;27247;48.020;16.720;2023-02-26T20:29:10;100052.91;;;0.85;72.07
41515;BME280;27247;48.020;16.720;2023-02-26T20:33:21;100053.03;;;0.84;72.55
41515;BME280;27247;48.020;16.720;2023-02-26T20:37:32;100046.94;;;0.83;73.00
41515;BME280;27247;48.020;16.720;2023-02-26T20:41:42;100041.25;;;0.77;72.96
41515;BME280;27247;48.020;16.720;2023-02-26T20:45:53;100051.16;;;0.73;73.41
41515;BME280;27247;48.020;16.720;2023-02-26T20:50:06;100059.78;;;0.75;73.67
41515;BME280;27247;48.020;16.720;2023-02-26T20:54:17;100059.59;;;0.66;73.95
41515;BME280;27247;48.020;16.720;2023-02-26T20:58:29;100060.44;;;0.66;73.68
41515;BME280;27247;48.020;16.720;2023-02-26T21:02:41;100068.41;;;0.64;73.46
41515;BME280;27247;48.020;16.720;2023-02-26T21:06:53;100075.78;;;0.59;73.93
41515;BME280;27247;48.020;16.720;2023-02-26T21:11:04;100088.53;;;0.53;74.07
41515;BME280;27247;48.020;16.720;2023-02-26T21:15:17;100096.09;;;0.57;74.30
41515;BME280;27247;48.020;16.720;2023-02-26T21:19:28;100084.09;;;0.53;73.91
41515;BME280;27247;48.020;16.720;2023-02-26T21:23:38;100095.97;;;0.59;74.44
41515;BME280;27247;48.020;16.720;2023-02-26T21:27:49;100096.50;;;0.51;74.86
41515;BME280;27247;48.020;16.720;2023-02-26T21:32:00;100096.72;;;0.48;75.15
41515;BME280;27247;48.020;16.720;2023-02-26T21:36:12;100099.13;;;0.51;74.93
41515;BME280;27247;48.020;16.720;2023-02-26T21:40:23;100090.19;;;0.41;75.34
41515;BME280;27247;48.020;16.720;2023-02-26T21:44:34;100107.75;;;0.41;75.17
41515;BME280;27247;48.020;16.720;2023-02-26T21:48:45;100106.59;;;0.45;75.06
41515;BME280;27247;48.020;16.720;2023-02-26T21:52:57;100121.53;;;0.44;75.13
41515;BME280;27247;48.020;16.720;2023-02-26T21:57:09;100125.41;;;0.39;74.76
41515;BME280;27247;48.020;16.720;2023-02-26T22:01:20;100128.16;;;0.37;74.90
41515;BME280;27247;48.020;16.720;2023-02-26T22:05:30;100134.47;;;0.35;74.92
41515;BME280;27247;48.020;16.720;2023-02-26T22:09:41;100149.38;;;0.34;75.07
41515;BME280;27247;48.020;16.720;2023-02-26T22:13:53;100145.06;;;0.33;75.47
41515;BME280;27247;48.020;16.720;2023-02-26T22:18:03;100148.44;;;0.35;74.94
41515;BME280;27247;48.020;16.720;2023-02-26T22:22:13;100148.53;;;0.34;75.16
41515;BME280;27247;48.020;16.720;2023-02-26T22:26:25;100150.63;;;0.28;74.80
41515;BME280;27247;48.020;16.720;2023-02-26T22:30:36;100150.53;;;0.30;74.94
41515;BME280;27247;48.020;16.720;2023-02-26T22:34:46;100159.25;;;0.30;74.88
41515;BME280;27247;48.020;16.720;2023-02-26T22:38:57;100160.44;;;0.39;74.58
41515;BME280;27247;48.020;16.720;2023-02-26T22:43:07;100162.53;;;0.34;74.53
41515;BME280;27247;48.020;16.720;2023-02-26T22:47:18;100170.41;;;0.34;74.79
41515;BME280;27247;48.020;16.720;2023-02-26T22:51:28;100174.28;;;0.28;74.95
41515;BME280;27247;48.020;16.720;2023-02-26T22:55:39;100184.91;;;0.27;75.05
41515;BME280;27247;48.020;16.720;2023-02-26T22:59:49;100178.16;;;0.23;74.86
41515;BME280;27247;48.020;16.720;2023-02-26T23:04:00;100196.97;;;0.17;75.24
41515;BME280;27247;48.020;16.720;2023-02-26T23:08:10;100204.84;;;0.17;74.94
41515;BME280;27247;48.020;16.720;2023-02-26T23:12:20;100205.06;;;0.14;75.03
41515;BME280;27247;48.020;16.720;2023-02-26T23:16:31;100218.28;;;0.12;75.26
41515;BME280;27247;48.020;16.720;2023-02-26T23:20:42;100224.59;;;0.10;75.23
41515;BME280;27247;48.020;16.720;2023-02-26T23:24:52;100216.41;;;0.14;75.89
41515;BME280;27247;48.020;16.720;2023-02-26T23:29:03;100221.97;;;0.10;75.84
41515;BME280;27247;48.020;16.720;2023-02-26T23:33:15;100207.13;;;0.09;76.18
41515;BME280;27247;48.020;16.720;2023-02-26T23:37:25;100197.78;;;0.05;76.44
41515;BME280;27247;48.020;16.720;2023-02-26T23:41:36;100193.56;;;0.02;76.71
41515;BME280;27247;48.020;16.720;2023-02-26T23:45:46;100192.81;;;0.00;77.07
41515;BME280;27247;48.020;16.720;2023-02-26T23:49:56;100193.09;;;-0.05;76.99
41515;BME280;27247;48.020;16.720;2023-02-26T23:54:07;100199.28;;;-0.06;77.06
41515;BME280;27247;48.020;16.720;2023-02-26T23:58:17;100202.09;;;-0.09;77.25
